Time;durP1;ratioP1;P1;durP2;ratioP2;P2;SDS_P1;SDS_P2;PMS_P1;PMS_P2;Temp;Humidity;BMP_temperature;BMP_pressure;BME280_temperature;BME280_humidity;BME280_pressure;Samples;Min_cycle;Max_cycle;Signal;HPM_P1;HPM_P2
2023/01/17 00:01:15;;;;;;;7.70;5.43;;;1.40;99.90;;;;;;5130573;28;20562;-76
2023/01/17 00:12:19;;;;;;;12.60;6.60;;;1.30;99.90;;;;;;5154244;28;20026;-75
2023/01/17 00:14:55;;;;;;;10.82;6.60;;;1.40;99.90;;;;;;5135914;28;20357;-78
2023/01/17 00:17:28;;;;;;;11.43;6.55;;;1.50;99.90;;;;;;5151306;28;20032;-76
2023/01/17 01:35:15;;;;;;;6.43;4.30;;;1.70;99.90;;;;;;5094502;29;20042;-70
2023/01/17 01:37:47;;;;;;;6.78;4.22;;;1.60;99.90;;;;;;5093403;29;20041;-72
2023/01/17 01:40:21;;;;;;;7.15;5.00;;;1.60;99.90;;;;;;5101806;29;20035;-72
2023/01/17 01:42:53;;;;;;;;;;;1.60;99.90;;;;;;5101562;29;20066;-74
2023/01/17 01:45:32;;;;;;;6.38;4.18;;;1.60;99.90;;;;;;5096570;28;20186;-70
2023/01/17 01:48:28;;;;;;;5.78;4.03;;;1.60;99.90;;;;;;5106294;29;20043;-73
2023/01/17 01:51:16;;;;;;;6.80;4.60;;;1.70;99.90;;;;;;5089502;29;20040;-74
2023/01/17 01:53:53;;;;;;;6.43;4.15;;;1.70;99.90;;;;;;5108228;29;20027;-73
2023/01/17 01:56:25;;;;;;;5.57;4.10;;;1.70;99.90;;;;;;5104880;29;20121;-71
2023/01/17 01:58:58;;;;;;;7.07;4.93;;;1.70;99.90;;;;;;5106604;28;20332;-71
2023/01/17 02:01:35;;;;;;;7.63;4.63;;;1.70;99.90;;;;;;5108873;28;20035;-70
2023/01/17 02:04:08;;;;;;;6.90;4.57;;;1.80;99.90;;;;;;5103063;29;20028;-71
2023/01/17 02:06:50;;;;;;;5.43;3.73;;;1.80;99.90;;;;;;5065314;29;20054;-70
2023/01/17 02:09:22;;;;;;;7.72;4.90;;;1.90;99.90;;;;;;5090253;29;20378;-72
2023/01/17 02:11:54;;;;;;;7.30;4.30;;;1.90;99.90;;;;;;5090509;29;20121;-70
2023/01/17 02:14:25;;;;;;;7.10;4.43;;;2.00;99.90;;;;;;5073685;29;20546;-73
2023/01/17 02:17:08;;;;;;;8.35;4.72;;;2.10;99.90;;;;;;5071731;29;20043;-70
2023/01/17 02:19:59;;;;;;;7.22;4.53;;;2.10;99.90;;;;;;5073990;29;20035;-70
2023/01/17 02:23:08;;;;;;;10.20;4.93;;;2.20;99.90;;;;;;5071344;29;20036;-70
2023/01/17 02:26:22;;;;;;;8.07;5.65;;;2.20;99.90;;;;;;5073739;29;20043;-69
2023/01/17 02:29:35;;;;;;;7.85;5.03;;;2.30;99.90;;;;;;5105984;29;20039;-72
2023/01/17 02:32:12;;;;;;;7.85;5.00;;;2.20;99.90;;;;;;5094002;29;20043;-70
2023/01/17 02:34:57;;;;;;;7.72;4.93;;;2.20;99.90;;;;;;5088166;29;20051;-72
2023/01/17 02:37:47;;;;;;;5.78;4.20;;;2.30;99.90;;;;;;5088441;29;20039;-71
2023/01/17 02:40:26;;;;;;;6.07;4.15;;;2.30;99.90;;;;;;5086515;29;20233;-70
2023/01/17 02:43:05;;;;;;;6.22;4.78;;;2.40;99.90;;;;;;5088989;29;20039;-69
2023/01/17 02:45:36;;;;;;;6.97;4.53;;;2.40;99.90;;;;;;5073536;29;20672;-74
2023/01/17 02:48:13;;;;;;;8.32;4.65;;;2.40;99.90;;;;;;5073186;29;20046;-72
2023/01/17 02:50:50;;;;;;;6.40;4.63;;;2.40;99.90;;;;;;5088215;29;20039;-70
2023/01/17 02:53:50;;;;;;;7.32;4.57;;;2.40;99.90;;;;;;5076695;29;20372;-70
2023/01/17 02:56:33;;;;;;;7.22;4.35;;;2.40;99.90;;;;;;5085844;29;20051;-70
2023/01/17 02:59:07;;;;;;;7.57;4.72;;;2.50;99.90;;;;;;5085474;29;20527;-72
2023/01/17 03:02:03;;;;;;;6.93;4.70;;;2.40;99.90;;;;;;5088965;29;20038;-71
2023/01/17 03:04:47;;;;;;;7.72;4.20;;;2.30;99.90;;;;;;5080931;28;20057;-71
2023/01/17 03:07:25;;;;;;;6.40;4.47;;;2.20;99.90;;;;;;5068983;29;20038;-69
2023/01/17 03:10:03;;;;;;;8.07;5.32;;;2.20;99.90;;;;;;5088696;29;20050;-71
2023/01/17 03:12:39;;;;;;;6.88;4.70;;;2.20;99.90;;;;;;5089822;29;20046;-68
2023/01/17 03:15:16;;;;;;;8.50;5.00;;;2.20;99.90;;;;;;5089600;29;20031;-69
2023/01/17 03:17:52;;;;;;;6.47;4.47;;;2.20;99.90;;;;;;5070957;29;20438;-69
2023/01/17 03:20:31;;;;;;;6.85;4.43;;;2.20;99.90;;;;;;5087528;29;20062;-68
2023/01/17 03:23:02;;;;;;;6.85;4.90;;;2.20;99.90;;;;;;5091847;29;20039;-70
2023/01/17 03:25:34;;;;;;;8.60;4.80;;;2.20;99.90;;;;;;5103394;29;20564;-73
2023/01/17 03:28:12;;;;;;;6.13;4.38;;;2.20;99.90;;;;;;5088274;29;20589;-72
2023/01/17 03:30:43;;;;;;;6.80;4.75;;;2.20;99.90;;;;;;5073229;29;20028;-67
2023/01/17 03:33:17;;;;;;;6.38;4.35;;;2.20;99.90;;;;;;5089999;29;20050;-71
2023/01/17 03:35:48;;;;;;;9.10;5.90;;;2.20;99.90;;;;;;5070602;29;20040;-72
2023/01/17 03:38:22;;;;;;;8.13;5.72;;;2.20;99.90;;;;;;5087815;29;20278;-71
2023/01/17 03:40:56;;;;;;;7.88;5.32;;;2.20;99.90;;;;;;5088069;29;20031;-70
2023/01/17 03:43:27;;;;;;;7.75;5.30;;;2.20;99.90;;;;;;5072243;29;20514;-73
2023/01/17 03:46:16;;;;;;;8.30;5.97;;;2.20;99.90;;;;;;5072631;29;20069;-70
2023/01/17 03:48:48;;;;;;;9.55;6.03;;;2.20;99.90;;;;;;5072586;29;20049;-70
2023/01/17 03:51:27;;;;;;;6.78;4.45;;;2.20;99.90;;;;;;5092552;29;20055;-70
2023/01/17 03:54:01;;;;;;;8.63;5.22;;;2.20;99.90;;;;;;5077979;29;20035;-70
2023/01/17 03:56:32;;;;;;;10.07;5.65;;;2.20;99.90;;;;;;5070276;29;20555;-71
2023/01/17 03:59:06;;;;;;;9.82;6.38;;;2.20;99.90;;;;;;5102914;29;20470;-69
2023/01/17 04:01:39;;;;;;;9.18;5.45;;;2.30;99.90;;;;;;5103330;29;20027;-69
2023/01/17 04:04:11;;;;;;;8.93;5.95;;;2.30;99.90;;;;;;5064906;29;20490;-70
2023/01/17 04:06:47;;;;;;;10.00;6.00;;;2.20;99.90;;;;;;5086700;29;20042;-69
2023/01/17 04:09:18;;;;;;;10.13;6.28;;;2.20;99.90;;;;;;5087943;29;20240;-69
2023/01/17 04:11:49;;;;;;;11.32;5.88;;;2.20;99.90;;;;;;5099577;29;20458;-69
2023/01/17 04:14:20;;;;;;;8.43;5.47;;;2.10;99.90;;;;;;5103101;29;20035;-70
2023/01/17 04:16:52;;;;;;;12.25;6.95;;;2.10;99.90;;;;;;5088699;29;21118;-69
2023/01/17 04:19:26;;;;;;;11.27;6.38;;;2.00;99.90;;;;;;5087997;29;20024;-69
2023/01/17 04:21:58;;;;;;;9.07;5.95;;;1.90;99.90;;;;;;5071908;29;20552;-67
2023/01/17 04:24:30;;;;;;;8.60;5.72;;;2.00;99.90;;;;;;5072016;29;20054;-68
2023/01/17 04:27:02;;;;;;;10.57;6.03;;;2.00;99.90;;;;;;5070969;29;20039;-74
2023/01/17 04:29:34;;;;;;;10.35;5.78;;;2.00;99.90;;;;;;5086139;29;20043;-71
2023/01/17 04:32:07;;;;;;;9.35;5.72;;;1.90;99.90;;;;;;5101993;29;20042;-72
2023/01/17 04:34:38;;;;;;;9.77;5.80;;;2.00;99.90;;;;;;5070825;29;20041;-72
2023/01/17 04:37:09;;;;;;;11.32;6.82;;;1.90;99.90;;;;;;5087363;29;20039;-69
2023/01/17 04:39:41;;;;;;;8.55;5.38;;;1.90;99.90;;;;;;5089160;29;20019;-72
2023/01/17 04:42:12;;;;;;;11.65;6.05;;;1.90;99.90;;;;;;5071651;29;20471;-73
2023/01/17 04:44:53;;;;;;;12.40;7.05;;;1.90;99.90;;;;;;5069812;29;20047;-72
2023/01/17 04:47:24;;;;;;;10.85;6.55;;;1.90;99.90;;;;;;5071617;29;20034;-74
2023/01/17 04:49:55;;;;;;;10.20;6.65;;;1.90;99.90;;;;;;5071355;29;20495;-69
2023/01/17 04:52:29;;;;;;;14.38;8.27;;;1.90;99.90;;;;;;5089510;29;20037;-69
2023/01/17 04:55:02;;;;;;;13.80;7.97;;;1.90;99.90;;;;;;5070926;29;20556;-71
2023/01/17 04:57:36;;;;;;;15.13;7.97;;;1.90;99.90;;;;;;5069445;29;20035;-72
2023/01/17 05:00:11;;;;;;;11.90;7.50;;;1.90;99.90;;;;;;5087646;29;20031;-70
2023/01/17 05:02:42;;;;;;;14.02;7.75;;;1.90;99.90;;;;;;5077229;29;20047;-69
2023/01/17 05:05:17;;;;;;;15.02;8.02;;;1.90;99.90;;;;;;5078277;29;20367;-71
2023/01/17 05:07:57;;;;;;;26.73;11.70;;;1.90;99.90;;;;;;5070354;29;20040;-71
2023/01/17 05:10:28;;;;;;;23.27;11.32;;;1.90;99.90;;;;;;5087897;29;20706;-70
2023/01/17 05:13:00;;;;;;;30.25;14.52;;;1.90;99.90;;;;;;5071331;29;20032;-69
2023/01/17 05:15:31;;;;;;;36.25;14.32;;;1.90;99.90;;;;;;5086309;29;20051;-70
2023/01/17 05:18:10;;;;;;;27.40;12.00;;;1.90;99.90;;;;;;5085520;29;20035;-70
2023/01/17 05:20:43;;;;;;;29.13;13.43;;;1.90;99.90;;;;;;5055404;29;20418;-74
2023/01/17 05:23:17;;;;;;;29.83;11.90;;;1.90;99.90;;;;;;5073546;29;20047;-69
2023/01/17 05:25:51;;;;;;;29.10;12.10;;;1.80;99.90;;;;;;5085436;29;20043;-69
2023/01/17 05:28:25;;;;;;;;;;;1.60;99.90;;;;;;5086799;29;20042;-72
2023/01/17 05:31:01;;;;;;;15.30;7.50;;;1.60;99.90;;;;;;5086591;29;19909;-69
2023/01/17 05:33:33;;;;;;;10.25;6.07;;;1.50;99.90;;;;;;5086346;29;20048;-73
2023/01/17 05:36:07;;;;;;;13.82;6.30;;;1.50;99.90;;;;;;5073224;29;20046;-70
2023/01/17 05:38:43;;;;;;;14.77;7.38;;;1.50;99.90;;;;;;5090014;29;20662;-73
2023/01/17 05:41:21;;;;;;;10.82;6.78;;;1.50;99.90;;;;;;5088745;29;20023;-69
2023/01/17 05:43:53;;;;;;;12.15;6.93;;;1.50;99.90;;;;;;5090178;29;20548;-69
2023/01/17 05:46:27;;;;;;;7.93;5.43;;;1.50;99.90;;;;;;5075693;29;20039;-71
2023/01/17 05:48:58;;;;;;;14.57;7.70;;;1.60;99.90;;;;;;5089334;29;20181;-68
2023/01/17 05:51:29;;;;;;;10.40;7.00;;;1.60;99.90;;;;;;5089301;29;20043;-70
2023/01/17 05:54:03;;;;;;;11.65;7.85;;;1.70;99.90;;;;;;5072765;29;20052;-71
2023/01/17 05:56:37;;;;;;;9.38;6.38;;;1.70;99.90;;;;;;5089489;29;20256;-67
2023/01/17 05:59:09;;;;;;;10.25;6.10;;;1.70;99.90;;;;;;5091827;29;20052;-71
2023/01/17 06:01:45;;;;;;;8.98;5.95;;;1.70;99.90;;;;;;5089516;29;20042;-73
2023/01/17 06:04:19;;;;;;;9.20;5.70;;;1.70;99.90;;;;;;5080871;29;20147;-70
2023/01/17 06:06:53;;;;;;;13.48;7.93;;;1.70;99.90;;;;;;5102095;28;20044;-72
2023/01/17 06:09:24;;;;;;;;;;;1.70;99.90;;;;;;5085813;29;20046;-71
2023/01/17 06:11:58;;;;;;;13.00;7.13;;;1.70;99.90;;;;;;5077021;29;19917;-69
2023/01/17 06:14:29;;;;;;;10.23;7.03;;;1.70;99.90;;;;;;5090435;29;20036;-69
2023/01/17 06:17:00;;;;;;;13.05;7.75;;;1.70;99.90;;;;;;5089700;29;20042;-72
2023/01/17 06:19:32;;;;;;;11.05;7.68;;;1.70;99.90;;;;;;5073568;29;20209;-70
2023/01/17 06:22:04;;;;;;;9.98;7.05;;;1.70;99.90;;;;;;5083440;29;20210;-72
2023/01/17 06:24:38;;;;;;;10.38;7.53;;;1.60;99.90;;;;;;5072964;29;20039;-71
2023/01/17 06:27:09;;;;;;;10.27;6.88;;;1.60;99.90;;;;;;5075859;29;20042;-70
2023/01/17 06:29:40;;;;;;;13.52;7.65;;;1.60;99.90;;;;;;5064997;29;20031;-72
2023/01/17 06:32:14;;;;;;;11.30;7.88;;;1.60;99.90;;;;;;5089398;29;20044;-71
2023/01/17 06:34:45;;;;;;;10.30;7.25;;;1.50;99.90;;;;;;5072675;29;20036;-71
2023/01/17 06:37:17;;;;;;;13.52;7.40;;;1.50;99.90;;;;;;5073983;29;20581;-70
2023/01/17 06:39:55;;;;;;;13.88;7.60;;;1.50;99.90;;;;;;5088377;29;20036;-75
2023/01/17 06:42:31;;;;;;;10.93;6.47;;;1.50;99.90;;;;;;5082891;29;20049;-69
2023/01/17 06:45:02;;;;;;;9.10;6.47;;;1.40;99.90;;;;;;5075910;29;20401;-69
2023/01/17 06:47:37;;;;;;;18.70;10.15;;;1.30;99.90;;;;;;5090750;29;20039;-69
2023/01/17 06:50:14;;;;;;;15.45;9.50;;;1.10;99.90;;;;;;5072900;29;20039;-71
2023/01/17 06:53:03;;;;;;;16.73;8.93;;;1.10;99.90;;;;;;5072684;29;20042;-71
2023/01/17 06:55:39;;;;;;;13.85;8.15;;;1.10;99.90;;;;;;5072636;29;20051;-68
2023/01/17 06:58:12;;;;;;;13.13;7.38;;;1.10;99.90;;;;;;5063949;29;20036;-72
2023/01/17 07:00:44;;;;;;;14.88;8.98;;;1.00;99.90;;;;;;5054850;29;20058;-74
2023/01/17 07:03:24;;;;;;;13.15;7.60;;;1.10;99.90;;;;;;5089654;29;20050;-69
2023/01/17 07:05:58;;;;;;;14.98;8.50;;;1.10;99.90;;;;;;5094871;29;20051;-67
2023/01/17 07:08:32;;;;;;;11.90;7.85;;;1.10;99.90;;;;;;5057100;29;20027;-68
2023/01/17 07:11:07;;;;;;;10.40;7.13;;;1.10;99.90;;;;;;5071417;29;20030;-70
2023/01/17 07:13:39;;;;;;;14.73;8.02;;;1.00;99.90;;;;;;5088823;29;20040;-71
2023/01/17 07:16:13;;;;;;;13.95;8.25;;;1.00;99.90;;;;;;5057713;29;20054;-73
2023/01/17 07:18:44;;;;;;;;;;;1.10;99.90;;;;;;5073124;29;20043;-67
2023/01/17 07:21:15;;;;;;;15.27;8.32;;;1.10;99.90;;;;;;5104334;29;19920;-67
2023/01/17 07:23:49;;;;;;;15.20;7.80;;;1.00;99.90;;;;;;5071972;29;20035;-69
2023/01/17 07:26:33;;;;;;;15.43;8.35;;;1.10;99.90;;;;;;5073702;29;20027;-72
2023/01/17 07:29:13;;;;;;;14.18;8.43;;;1.20;99.90;;;;;;5086773;29;20487;-72
2023/01/17 07:31:50;;;;;;;15.02;8.55;;;1.20;99.90;;;;;;5071366;29;20039;-68
2023/01/17 07:34:21;;;;;;;23.67;14.73;;;1.20;99.90;;;;;;5076773;29;20039;-68
2023/01/17 07:36:53;;;;;;;14.30;9.13;;;1.30;99.90;;;;;;5067141;29;20274;-70
2023/01/17 07:39:27;;;;;;;13.38;8.82;;;1.40;99.90;;;;;;5086777;29;20480;-72
2023/01/17 07:42:01;;;;;;;16.70;9.82;;;1.30;99.90;;;;;;5084915;29;20275;-69
2023/01/17 07:44:32;;;;;;;15.70;9.10;;;1.40;99.90;;;;;;5074652;29;20376;-69
2023/01/17 07:47:06;;;;;;;14.43;9.13;;;1.50;99.90;;;;;;5087495;29;20447;-68
2023/01/17 07:49:37;;;;;;;12.35;8.50;;;1.70;99.90;;;;;;5071140;29;20037;-70
2023/01/17 07:52:08;;;;;;;11.60;7.20;;;1.80;99.90;;;;;;5087551;29;20221;-69
2023/01/17 07:54:42;;;;;;;18.40;8.50;;;1.90;99.90;;;;;;5089027;29;20042;-69
2023/01/17 07:57:13;;;;;;;13.25;9.43;;;2.00;99.90;;;;;;5086615;29;20361;-71
2023/01/17 07:59:44;;;;;;;18.33;9.18;;;2.00;99.90;;;;;;5087641;29;20330;-70
2023/01/17 08:02:20;;;;;;;13.48;8.25;;;2.10;99.90;;;;;;5087253;29;20062;-71
2023/01/17 08:04:51;;;;;;;14.23;8.80;;;2.20;99.90;;;;;;5077261;29;20057;-71
2023/01/17 08:07:23;;;;;;;14.95;8.20;;;2.40;99.90;;;;;;5086598;29;20040;-68
2023/01/17 08:09:54;;;;;;;14.00;8.73;;;2.60;99.90;;;;;;5087480;29;20027;-71
2023/01/17 08:12:25;;;;;;;13.70;8.45;;;2.70;99.90;;;;;;5087329;29;20028;-69
2023/01/17 08:14:56;;;;;;;14.90;8.40;;;2.80;99.90;;;;;;5086607;29;20040;-69
2023/01/17 08:17:28;;;;;;;21.08;8.70;;;3.00;99.90;;;;;;5070816;29;20051;-71
2023/01/17 08:19:59;;;;;;;12.07;7.75;;;3.10;99.90;;;;;;5085665;29;20332;-70
2023/01/17 08:22:30;;;;;;;11.65;8.07;;;3.20;99.90;;;;;;5087996;29;20507;-71
2023/01/17 08:25:02;;;;;;;12.57;8.00;;;3.40;99.90;;;;;;5071749;29;20312;-72
2023/01/17 08:27:36;;;;;;;10.85;7.15;;;3.60;99.90;;;;;;5070641;29;20217;-72
2023/01/17 08:30:10;;;;;;;14.70;7.82;;;3.70;99.90;;;;;;5087664;29;20291;-72
2023/01/17 08:32:41;;;;;;;13.90;7.82;;;3.60;99.90;;;;;;5069676;29;20356;-71
2023/01/17 08:35:13;;;;;;;10.07;6.95;;;3.80;99.90;;;;;;5071182;29;20038;-70
2023/01/17 08:37:44;;;;;;;14.45;7.10;;;3.90;99.90;;;;;;5070843;29;20043;-72
2023/01/17 08:40:16;;;;;;;11.02;6.25;;;4.10;99.90;;;;;;5069623;29;20036;-71
2023/01/17 08:42:57;;;;;;;17.83;6.50;;;4.20;99.90;;;;;;5070818;29;20027;-72
2023/01/17 08:45:28;;;;;;;14.18;5.85;;;4.40;99.90;;;;;;5071424;29;20023;-74
2023/01/17 08:48:00;;;;;;;14.90;7.40;;;4.60;99.90;;;;;;5071982;29;20090;-70
2023/01/17 08:50:31;;;;;;;9.90;6.00;;;4.80;99.90;;;;;;5080511;29;20299;-69
2023/01/17 08:53:03;;;;;;;11.05;6.25;;;5.00;99.90;;;;;;5075038;29;20024;-69
2023/01/17 08:55:38;;;;;;;17.42;5.82;;;5.20;99.90;;;;;;5089017;29;20318;-70
2023/01/17 08:58:12;;;;;;;;;;;5.40;99.90;;;;;;5093689;29;20300;-69
2023/01/17 09:00:43;;;;;;;12.73;5.43;;;5.70;99.90;;;;;;5080160;29;19903;-69
2023/01/17 09:03:15;;;;;;;9.73;5.10;;;5.80;99.90;;;;;;5086714;29;20043;-73
2023/01/17 09:05:46;;;;;;;19.08;10.07;;;5.90;99.90;;;;;;5073320;29;20630;-73
2023/01/17 09:08:19;;;;;;;10.05;6.63;;;6.00;99.90;;;;;;5090158;29;20049;-72
2023/01/17 09:10:51;;;;;;;10.27;6.33;;;6.10;99.90;;;;;;5075357;29;20235;-69
2023/01/17 09:13:24;;;;;;;8.10;5.72;;;6.00;99.90;;;;;;5107954;29;20281;-71
2023/01/17 09:15:59;;;;;;;9.20;5.53;;;5.90;99.90;;;;;;5106112;29;20039;-70
2023/01/17 09:18:32;;;;;;;8.50;4.97;;;5.80;99.90;;;;;;5088515;29;20236;-71
2023/01/17 09:21:13;;;;;;;7.55;4.38;;;5.80;99.90;;;;;;5091776;29;20306;-71
2023/01/17 09:23:49;;;;;;;11.13;5.10;;;5.80;99.90;;;;;;5076789;29;20051;-69
2023/01/17 09:26:28;;;;;;;8.40;4.90;;;5.80;99.90;;;;;;5073756;29;20039;-69
2023/01/17 09:28:59;;;;;;;10.60;6.63;;;5.80;99.90;;;;;;5093086;29;20024;-70
2023/01/17 09:31:32;;;;;;;13.30;7.03;;;5.80;99.90;;;;;;5092963;29;20256;-71
2023/01/17 09:34:05;;;;;;;13.98;6.55;;;5.90;99.90;;;;;;5088333;29;20042;-70
2023/01/17 09:36:42;;;;;;;6.22;4.13;;;6.10;99.90;;;;;;5091433;29;20038;-73
2023/01/17 09:39:16;;;;;;;5.10;3.45;;;6.10;99.90;;;;;;5076355;29;20035;-70
2023/01/17 09:42:02;;;;;;;4.68;3.63;;;5.90;99.90;;;;;;5074501;29;20039;-70
2023/01/17 09:44:46;;;;;;;7.95;3.45;;;6.00;99.90;;;;;;5091554;29;20501;-72
2023/01/17 09:47:46;;;;;;;5.82;3.38;;;6.00;99.90;;;;;;5105275;29;20346;-70
2023/01/17 09:50:32;;;;;;;6.95;3.78;;;6.30;99.90;;;;;;5067537;29;20116;-72
2023/01/17 09:53:11;;;;;;;4.47;3.35;;;6.70;99.90;;;;;;5076414;29;20542;-73
2023/01/17 09:55:50;;;;;;;6.40;3.90;;;6.90;99.90;;;;;;5088861;29;20039;-71
2023/01/17 09:58:40;;;;;;;4.78;3.67;;;7.10;99.90;;;;;;5090047;29;20047;-72
2023/01/17 10:01:39;;;;;;;6.63;3.88;;;7.50;99.90;;;;;;5073462;29;20058;-68
2023/01/17 10:05:02;;;;;;;5.03;3.67;;;8.10;99.90;;;;;;5079957;29;20050;-68
2023/01/17 10:08:08;;;;;;;7.65;3.97;;;8.40;99.90;;;;;;5075117;29;20043;-71
2023/01/17 10:11:14;;;;;;;4.27;2.90;;;8.70;99.90;;;;;;5085138;29;20028;-71
2023/01/17 10:14:27;;;;;;;2.53;1.98;;;8.70;99.90;;;;;;5061262;29;20032;-68
2023/01/17 10:17:29;;;;;;;5.70;2.20;;;8.50;99.90;;;;;;5070385;29;20034;-67
2023/01/17 10:20:19;;;;;;;2.83;1.75;;;8.40;99.90;;;;;;5077728;29;20083;-71
2023/01/17 10:22:59;;;;;;;1.55;1.42;;;8.10;99.90;;;;;;5070125;29;20658;-72
2023/01/17 10:25:47;;;;;;;3.60;2.17;;;7.80;99.90;;;;;;5084916;29;20043;-71
2023/01/17 10:28:24;;;;;;;5.13;2.30;;;7.90;99.90;;;;;;5088864;29;20044;-71
2023/01/17 10:31:11;;;;;;;2.53;2.33;;;7.80;99.90;;;;;;5090199;29;20027;-73
2023/01/17 10:33:50;;;;;;;4.13;1.70;;;7.70;99.90;;;;;;5072963;29;20049;-68
2023/01/17 10:36:28;;;;;;;2.45;1.77;;;7.80;99.90;;;;;;5090664;29;20031;-71
2023/01/17 10:39:10;;;;;;;4.53;2.10;;;7.40;99.90;;;;;;5089012;29;20042;-70
2023/01/17 10:41:48;;;;;;;2.72;1.73;;;7.60;99.90;;;;;;5074217;29;20062;-70
2023/01/17 10:44:27;;;;;;;2.72;2.05;;;7.50;99.90;;;;;;5090599;29;20031;-73
2023/01/17 10:47:10;;;;;;;4.18;2.88;;;7.30;99.90;;;;;;5074170;29;20035;-70
2023/01/17 10:49:51;;;;;;;4.55;3.35;;;7.20;99.90;;;;;;5079248;29;20063;-71
2023/01/17 10:52:44;;;;;;;3.15;2.08;;;7.10;99.90;;;;;;5086909;29;20036;-70
2023/01/17 10:55:34;;;;;;;5.20;2.70;;;6.80;99.90;;;;;;5084751;29;20026;-70
2023/01/17 10:58:11;;;;;;;4.68;2.63;;;6.70;99.90;;;;;;5072639;29;20362;-69
2023/01/17 11:00:48;;;;;;;4.25;2.50;;;6.70;99.90;;;;;;5089719;29;20031;-72
2023/01/17 11:03:20;;;;;;;3.83;2.83;;;6.60;99.90;;;;;;5066971;29;20417;-71
2023/01/17 11:06:14;;;;;;;5.07;2.50;;;6.60;99.90;;;;;;5093159;28;20054;-68
2023/01/17 11:08:52;;;;;;;5.90;3.10;;;6.60;99.90;;;;;;5070551;29;20474;-70
2023/01/17 11:11:32;;;;;;;3.80;2.55;;;6.60;99.90;;;;;;5088520;29;20401;-68
2023/01/17 11:14:23;;;;;;;3.30;2.33;;;6.60;99.90;;;;;;5088118;29;20027;-68
2023/01/17 11:17:02;;;;;;;7.00;2.80;;;7.10;99.90;;;;;;5077214;29;20051;-72
2023/01/17 11:19:35;;;;;;;2.85;2.42;;;7.50;99.90;;;;;;5089679;29;20046;-70
2023/01/17 11:22:11;;;;;;;3.67;2.20;;;7.90;99.90;;;;;;5103645;29;20038;-70
2023/01/17 11:24:55;;;;;;;5.22;2.63;;;8.20;99.90;;;;;;5087561;29;20031;-73
2023/01/17 11:27:28;;;;;;;;;;;8.30;99.90;;;;;;5088329;29;20039;-70
2023/01/17 11:30:19;;;;;;;3.55;2.20;;;8.20;99.90;;;;;;5087880;29;20173;-72
2023/01/17 11:33:04;;;;;;;9.63;3.22;;;7.80;99.90;;;;;;5093784;29;20073;-69
2023/01/17 11:35:43;;;;;;;5.38;2.70;;;7.70;99.90;;;;;;5087820;29;20019;-69
2023/01/17 11:38:20;;;;;;;4.88;1.85;;;7.70;99.90;;;;;;5088686;29;20055;-68
2023/01/17 11:41:18;;;;;;;3.55;2.05;;;7.70;99.90;;;;;;5089018;29;20040;-68
2023/01/17 11:43:54;;;;;;;4.50;2.25;;;7.50;99.90;;;;;;5088051;29;20027;-69
2023/01/17 11:46:29;;;;;;;2.47;2.13;;;7.40;99.90;;;;;;5104504;29;20039;-71
2023/01/17 11:49:06;;;;;;;2.95;1.75;;;7.30;99.90;;;;;;5103900;29;20035;-69
2023/01/17 11:51:43;;;;;;;3.80;1.95;;;7.30;99.90;;;;;;5073291;29;20134;-69
2023/01/17 11:54:32;;;;;;;7.05;2.25;;;7.00;99.90;;;;;;5088622;29;20336;-69
2023/01/17 11:57:05;;;;;;;2.83;2.08;;;7.00;99.90;;;;;;5083143;29;20240;-70
2023/01/17 11:59:41;;;;;;;2.90;1.70;;;6.90;99.90;;;;;;5072768;29;20330;-72
2023/01/17 12:02:36;;;;;;;3.45;1.80;;;7.00;99.90;;;;;;5092251;28;20050;-69
2023/01/17 12:05:27;;;;;;;;;;;7.10;99.90;;;;;;5070912;29;20237;-68
2023/01/17 12:08:25;;;;;;;1.80;1.60;;;7.20;99.90;;;;;;5073935;29;19925;-70
2023/01/17 12:11:27;;;;;;;2.63;1.98;;;7.20;99.90;;;;;;5079718;29;20392;-70
2023/01/17 12:14:18;;;;;;;2.28;1.67;;;7.10;99.90;;;;;;5071280;29;20035;-69
2023/01/17 12:17:02;;;;;;;2.95;1.58;;;7.30;99.90;;;;;;5059458;29;20348;-70
2023/01/17 12:20:03;;;;;;;2.53;1.63;;;7.30;99.90;;;;;;5089813;29;20276;-72
2023/01/17 12:22:49;;;;;;;3.63;2.03;;;7.60;99.90;;;;;;5072270;29;20047;-70
2023/01/17 12:25:43;;;;;;;2.83;1.85;;;7.80;99.90;;;;;;5077181;29;20045;-69
2023/01/17 12:28:20;;;;;;;3.35;1.83;;;8.00;99.90;;;;;;5072390;29;20116;-69
2023/01/17 12:30:57;;;;;;;4.57;1.80;;;8.10;99.90;;;;;;5088036;29;20343;-68
2023/01/17 12:33:44;;;;;;;2.83;1.30;;;8.10;99.90;;;;;;5071184;29;20312;-70
2023/01/17 12:36:27;;;;;;;2.08;1.58;;;8.20;99.90;;;;;;5070865;29;20036;-72
2023/01/17 12:39:08;;;;;;;3.17;1.40;;;8.10;99.90;;;;;;5070296;29;20035;-71
2023/01/17 12:42:25;;;;;;;1.48;1.33;;;7.90;99.90;;;;;;5070783;29;20436;-71
2023/01/17 12:45:23;;;;;;;2.53;1.52;;;7.50;99.90;;;;;;5009261;29;20625;-69
2023/01/17 12:48:01;;;;;;;2.08;1.40;;;7.60;99.90;;;;;;5009709;29;20037;-69
2023/01/17 12:51:16;;;;;;;1.60;1.25;;;7.60;99.90;;;;;;5020918;29;20225;-73
2023/01/17 12:53:56;;;;;;;1.60;1.50;;;7.70;99.90;;;;;;5016318;29;20045;-71
2023/01/17 12:56:32;;;;;;;2.03;1.70;;;7.70;99.90;;;;;;5025398;29;20037;-68
2023/01/17 12:59:25;;;;;;;1.67;1.58;;;7.70;99.90;;;;;;4996466;29;20406;-69
2023/01/17 13:02:01;;;;;;;2.42;1.60;;;7.60;99.90;;;;;;4994885;29;20049;-69
2023/01/17 13:04:45;;;;;;;2.25;1.60;;;7.50;99.90;;;;;;5001790;29;20077;-69
2023/01/17 13:07:47;;;;;;;1.70;1.60;;;7.40;99.90;;;;;;4995808;29;20043;-74
2023/01/17 13:10:29;;;;;;;1.85;1.58;;;7.30;99.90;;;;;;5026775;29;20492;-69
2023/01/17 13:13:24;;;;;;;2.63;1.70;;;7.30;99.90;;;;;;5012381;29;20047;-68
2023/01/17 13:16:04;;;;;;;2.28;1.95;;;7.30;99.90;;;;;;5007121;29;20330;-69
2023/01/17 13:18:45;;;;;;;2.28;1.52;;;7.30;99.90;;;;;;4992719;29;20292;-69
2023/01/17 13:21:32;;;;;;;1.85;1.50;;;7.10;99.90;;;;;;5058488;29;20220;-70
2023/01/17 13:24:22;;;;;;;1.95;1.33;;;6.90;99.90;;;;;;5071812;29;20027;-71
2023/01/17 13:27:18;;;;;;;2.00;1.40;;;6.80;99.90;;;;;;5088482;29;20561;-71
2023/01/17 13:29:55;;;;;;;1.60;1.50;;;6.80;99.90;;;;;;5086228;29;20039;-71
2023/01/17 13:32:47;;;;;;;1.60;1.48;;;6.80;99.90;;;;;;5071900;29;20074;-69
2023/01/17 13:35:41;;;;;;;;;;;6.80;99.90;;;;;;5065010;29;20048;-67
2023/01/17 13:38:41;;;;;;;2.05;1.40;;;6.70;99.90;;;;;;5066384;29;19946;-69
2023/01/17 13:41:31;;;;;;;3.13;1.67;;;6.70;99.90;;;;;;5069102;29;20046;-73
2023/01/17 13:44:26;;;;;;;1.65;1.30;;;6.70;99.90;;;;;;5070397;29;20035;-69
2023/01/17 13:47:02;;;;;;;1.85;1.50;;;6.60;99.90;;;;;;5070930;29;20304;-69
2023/01/17 13:49:40;;;;;;;1.63;1.20;;;6.60;99.90;;;;;;5070212;29;20024;-70
2023/01/17 13:52:18;;;;;;;2.33;1.30;;;6.60;99.90;;;;;;5070847;29;20059;-70
2023/01/17 13:54:54;;;;;;;1.55;1.15;;;6.60;99.90;;;;;;5088295;29;20034;-72
2023/01/17 13:57:25;;;;;;;1.48;1.20;;;6.50;99.90;;;;;;5089175;29;20051;-70
2023/01/17 14:00:23;;;;;;;1.75;1.40;;;6.50;99.90;;;;;;5073316;29;20047;-72
2023/01/17 14:02:54;;;;;;;1.85;1.30;;;6.50;99.90;;;;;;5080172;29;20050;-71
2023/01/17 14:05:37;;;;;;;1.45;1.20;;;6.40;99.90;;;;;;5089843;28;20326;-69
2023/01/17 14:08:17;;;;;;;1.40;1.30;;;6.40;99.90;;;;;;5078728;29;20045;-69
2023/01/17 14:11:03;;;;;;;2.15;1.38;;;6.20;99.90;;;;;;5092452;29;20038;-68
2023/01/17 14:13:37;;;;;;;1.50;1.40;;;6.20;99.90;;;;;;5089372;29;20028;-75
2023/01/17 14:16:35;;;;;;;2.15;1.80;;;6.10;99.90;;;;;;5091604;29;20035;-74
2023/01/17 14:19:24;;;;;;;1.52;1.38;;;6.10;99.90;;;;;;5073410;29;20055;-67
2023/01/17 14:22:20;;;;;;;1.85;1.42;;;6.10;99.90;;;;;;5090010;29;20020;-74
2023/01/17 14:25:08;;;;;;;4.38;2.05;;;6.10;99.90;;;;;;5073256;29;20058;-70
2023/01/17 14:27:56;;;;;;;2.13;1.92;;;6.10;99.90;;;;;;5090142;29;20054;-71
2023/01/17 14:30:31;;;;;;;2.80;2.20;;;6.00;99.90;;;;;;5073903;29;20040;-70
2023/01/17 14:33:04;;;;;;;2.53;2.22;;;5.90;99.90;;;;;;5089546;29;20040;-70
2023/01/17 14:35:53;;;;;;;2.47;1.98;;;5.90;99.90;;;;;;5073656;29;20473;-68
2023/01/17 14:38:34;;;;;;;4.15;2.20;;;5.90;99.90;;;;;;5089529;29;20339;-67
2023/01/17 14:41:14;;;;;;;3.80;2.42;;;5.80;99.90;;;;;;5073113;29;20115;-72
2023/01/17 14:43:48;;;;;;;2.65;2.17;;;5.80;99.90;;;;;;5090085;29;20220;-71
2023/01/17 14:46:31;;;;;;;5.55;2.65;;;5.80;99.90;;;;;;5089565;29;20052;-69
2023/01/17 14:49:08;;;;;;;4.30;2.58;;;5.70;99.90;;;;;;5089821;29;20027;-72
2023/01/17 14:51:42;;;;;;;2.97;2.28;;;5.70;99.90;;;;;;5094481;29;20338;-69
2023/01/17 14:54:20;;;;;;;4.85;2.42;;;5.50;99.90;;;;;;5089155;29;20034;-69
2023/01/17 14:56:51;;;;;;;2.85;2.20;;;5.50;99.90;;;;;;5071733;29;20057;-69
2023/01/17 14:59:27;;;;;;;3.53;2.67;;;5.50;99.90;;;;;;5087729;29;20019;-71
2023/01/17 15:01:58;;;;;;;5.38;2.63;;;5.40;99.90;;;;;;5092413;28;20068;-71
2023/01/17 15:04:38;;;;;;;3.60;2.90;;;5.40;99.90;;;;;;5081266;29;20337;-69
2023/01/17 15:07:18;;;;;;;4.22;2.60;;;5.30;99.90;;;;;;5083270;29;20452;-69
2023/01/17 15:09:52;;;;;;;6.28;2.55;;;5.30;99.90;;;;;;5089933;29;20041;-69
2023/01/17 15:12:26;;;;;;;3.20;2.83;;;5.30;99.90;;;;;;5055776;29;20161;-70
2023/01/17 15:15:00;;;;;;;7.50;2.70;;;5.20;99.90;;;;;;5054453;29;20360;-68
2023/01/17 15:17:33;;;;;;;4.20;2.83;;;5.20;99.90;;;;;;5088531;29;20539;-73
2023/01/17 15:20:10;;;;;;;5.55;3.20;;;5.10;99.90;;;;;;5086974;29;20030;-71